Almirante Brown, Argentina
Current Conditions -  °F | °C
As of 12:00 AM on Friday 28 Nov 2014 (Local Time) from SAEZ Reporting Station
Clear Clear  
Wind Chill: 22°   Ceiling: Unl
Heat Index: 22°   Visibility: 6mi
Dew Point: 15°   Wind: 8mph
Humidity: 64%   Direction: 60°ENE
Pressure: 29.97"   Gusts: NA
Location:  34.8°S, 58.38°W
Report Text: SAEZ 280300Z 06007KT CAVOK 22/15 Q1015
Loading
Personal Weather Stations






























Interactive Weather Map New forecast layout! Learn more

10-Day Weather Forecast

Advertisements
Track Severe Weather on mobile